createdAt,value
2018-05-01T03:01:09.658Z,0.00
2018-05-01T03:02:10.049Z,0.00
2018-05-01T03:04:10.038Z,0.00
2018-05-01T03:05:11.071Z,0.00
2018-05-01T03:06:10.893Z,0.00
2018-05-01T03:07:11.101Z,0.00
2018-05-01T03:09:11.094Z,0.00
2018-05-01T03:10:09.421Z,0.00
2018-05-01T03:11:09.479Z,0.00
2018-05-01T03:12:09.376Z,0.00
2018-05-01T03:13:09.515Z,0.00
2018-05-01T03:14:09.702Z,0.00
2018-05-01T03:15:09.800Z,0.00
2018-05-01T03:16:09.993Z,0.00
2018-05-01T03:17:10.155Z,0.00
2018-05-01T03:18:10.352Z,0.00
2018-05-01T03:19:10.440Z,0.00
2018-05-01T03:20:10.648Z,0.00
2018-05-01T03:21:10.711Z,0.00
2018-05-01T03:22:10.939Z,0.00
2018-05-01T03:23:11.192Z,0.00
2018-05-01T03:24:11.305Z,0.00
2018-05-01T03:25:11.428Z,0.00
2018-05-01T03:26:11.622Z,0.00
2018-05-01T03:27:11.731Z,0.00
2018-05-01T03:28:11.934Z,0.00
2018-05-01T03:29:12.092Z,4.00
2018-05-01T03:30:12.291Z,0.00
2018-05-01T03:31:12.376Z,4.00
2018-05-01T03:32:12.516Z,4.00
2018-05-01T03:33:13.280Z,4.00
2018-05-01T03:34:12.923Z,4.00
2018-05-01T03:35:13.071Z,4.00
2018-05-01T03:36:13.287Z,8.00
2018-05-01T03:37:13.403Z,8.00
2018-05-01T03:38:13.632Z,8.00
2018-05-01T03:39:13.769Z,8.00
2018-05-01T03:40:13.919Z,8.00
2018-05-01T03:41:14.065Z,8.00
2018-05-01T03:42:14.207Z,8.00
2018-05-01T03:43:14.401Z,12.00
2018-05-01T03:44:14.543Z,16.00
2018-05-01T03:45:14.647Z,16.00
2018-05-01T03:46:14.891Z,20.00
2018-05-01T03:47:15.063Z,20.00
2018-05-01T03:48:15.235Z,20.00
2018-05-01T03:49:15.416Z,24.00
2018-05-01T03:50:15.568Z,20.00
2018-05-01T03:51:15.662Z,24.00
2018-05-01T03:52:15.883Z,28.00
2018-05-01T03:53:16.035Z,36.00
2018-05-01T03:54:16.302Z,32.00
2018-05-01T03:55:16.372Z,36.00
2018-05-01T03:56:16.596Z,32.00
2018-05-01T03:57:16.854Z,32.00
2018-05-01T03:58:16.913Z,32.00
2018-05-01T03:59:17.091Z,36.00
2018-05-01T04:00:17.451Z,44.00
2018-05-01T04:01:17.493Z,52.00
2018-05-01T04:02:17.767Z,48.00
2018-05-01T04:03:17.789Z,56.00
2018-05-01T04:04:18.011Z,60.00
2018-05-01T04:05:18.141Z,60.00
2018-05-01T04:06:18.313Z,68.00
2018-05-01T04:07:18.438Z,68.00
2018-05-01T04:08:18.539Z,64.00
2018-05-01T04:09:18.795Z,68.00
2018-05-01T04:10:18.956Z,68.00
2018-05-01T04:11:19.106Z,72.00
2018-05-01T04:12:19.224Z,72.00
2018-05-01T04:13:19.430Z,80.00
2018-05-01T04:14:19.686Z,76.00
2018-05-01T04:15:19.809Z,84.00
2018-05-01T04:16:20.052Z,92.00
2018-05-01T04:17:20.140Z,92.00
2018-05-01T04:18:20.365Z,100.00
2018-05-01T04:19:20.515Z,108.00
2018-05-01T04:20:20.659Z,116.00
2018-05-01T04:21:20.731Z,124.00
2018-05-01T04:22:20.942Z,120.00
2018-05-01T04:23:21.109Z,140.00
2018-05-01T04:24:21.290Z,156.00
2018-05-01T04:25:21.488Z,148.00
2018-05-01T04:26:21.609Z,164.00
2018-05-01T04:27:21.776Z,200.00
2018-05-01T04:28:21.901Z,220.00
2018-05-01T04:29:22.097Z,232.00
2018-05-01T04:30:22.263Z,248.00
2018-05-01T04:31:22.412Z,276.00
2018-05-01T04:32:22.579Z,308.00
2018-05-01T04:33:22.765Z,284.00
2018-05-01T04:34:22.941Z,296.00
2018-05-01T04:35:23.042Z,304.00
2018-05-01T04:36:23.204Z,340.00
2018-05-01T04:37:23.364Z,368.00
2018-05-01T04:38:23.579Z,368.00
2018-05-01T04:39:23.769Z,376.00
2018-05-01T04:40:23.931Z,356.00
2018-05-01T04:41:24.061Z,368.00
2018-05-01T04:42:24.241Z,380.00
2018-05-01T04:43:24.446Z,388.00
2018-05-01T04:44:24.702Z,408.00
2018-05-01T04:45:24.779Z,432.00
2018-05-01T04:46:24.951Z,452.00
2018-05-01T04:47:25.101Z,516.00
2018-05-01T04:48:25.254Z,544.00
2018-05-01T04:49:25.478Z,532.00
2018-05-01T04:50:25.572Z,676.00
2018-05-01T04:51:25.735Z,872.00
2018-05-01T04:52:25.956Z,864.00
2018-05-01T04:53:26.055Z,792.00
2018-05-01T04:54:26.168Z,864.00
2018-05-01T04:55:26.424Z,920.00
2018-05-01T04:56:26.577Z,1192.00
2018-05-01T04:57:26.702Z,1472.00
2018-05-01T04:58:26.876Z,1604.00
2018-05-01T04:59:27.049Z,1644.00
2018-05-01T05:00:27.207Z,1736.00
2018-05-01T05:01:27.303Z,2068.00
2018-05-01T05:02:27.736Z,2472.00
2018-05-01T05:03:27.721Z,2728.00
2018-05-01T05:04:27.924Z,2588.00
2018-05-01T05:05:28.050Z,2560.00
2018-05-01T05:06:28.192Z,2860.00
2018-05-01T05:07:28.357Z,3120.00
2018-05-01T05:08:28.471Z,3088.00
2018-05-01T05:09:28.712Z,3044.00
2018-05-01T05:10:28.835Z,3104.00
2018-05-01T05:11:28.985Z,3344.00
2018-05-01T05:12:29.130Z,3528.00
2018-05-01T05:13:29.296Z,3368.00
2018-05-01T05:14:29.515Z,3216.00
2018-05-01T05:15:29.630Z,3244.00
2018-05-01T05:16:29.829Z,3204.00
2018-05-01T05:17:29.987Z,3200.00
2018-05-01T05:18:30.145Z,3372.00
2018-05-01T05:19:30.296Z,3492.00
2018-05-01T05:20:30.388Z,3468.00
2018-05-01T05:21:30.621Z,3472.00
2018-05-01T05:22:30.760Z,3464.00
2018-05-01T05:23:30.989Z,3456.00
2018-05-01T05:24:31.105Z,3260.00
2018-05-01T05:25:31.276Z,3316.00
2018-05-01T05:26:31.438Z,3336.00
2018-05-01T05:27:31.583Z,2920.00
2018-05-01T05:28:31.796Z,3092.00
2018-05-01T05:29:31.931Z,3244.00
2018-05-01T05:30:32.091Z,2792.00
2018-05-01T05:31:32.244Z,2408.00
2018-05-01T05:32:32.405Z,2124.00
2018-05-01T05:33:32.536Z,2208.00
2018-05-01T05:34:32.767Z,2276.00
2018-05-01T05:35:32.897Z,2440.00
2018-05-01T05:36:33.106Z,2052.00
2018-05-01T05:37:33.212Z,2204.00
2018-05-01T05:38:33.361Z,2784.00
2018-05-01T05:39:33.592Z,3384.00
2018-05-01T05:40:33.784Z,3132.00
2018-05-01T05:41:33.916Z,2536.00
2018-05-01T05:42:34.076Z,2324.00
2018-05-01T05:43:34.285Z,2528.00
2018-05-01T05:44:34.343Z,2572.00
2018-05-01T05:45:34.564Z,2840.00
2018-05-01T05:46:34.734Z,2852.00
2018-05-01T05:47:34.879Z,3088.00
2018-05-01T05:48:35.027Z,3168.00
2018-05-01T05:49:35.110Z,3340.00
2018-05-01T05:50:35.350Z,3352.00
2018-05-01T05:51:35.571Z,3224.00
2018-05-01T05:52:35.680Z,3008.00
2018-05-01T05:53:35.893Z,3180.00
2018-05-01T05:54:36.046Z,3340.00
2018-05-01T05:55:36.236Z,3416.00
2018-05-01T05:56:36.351Z,3112.00
2018-05-01T05:57:36.532Z,3344.00
2018-05-01T05:58:36.613Z,3332.00
2018-05-01T05:59:36.798Z,3356.00
2018-05-01T06:00:37.039Z,3636.00
2018-05-01T06:01:37.227Z,3616.00
2018-05-01T06:02:37.360Z,3204.00
2018-05-01T06:03:37.532Z,3124.00
2018-05-01T06:04:37.673Z,3156.00
2018-05-01T06:05:37.890Z,2932.00
2018-05-01T06:06:37.952Z,2700.00
2018-05-01T06:07:38.160Z,3252.00
2018-05-01T06:08:38.338Z,3020.00
2018-05-01T06:09:38.484Z,3244.00
2018-05-01T06:10:38.643Z,3592.00
2018-05-01T06:11:38.824Z,4156.00
2018-05-01T06:12:38.927Z,5068.00
2018-05-01T06:13:39.104Z,5696.00
2018-05-01T06:14:39.354Z,4944.00
2018-05-01T06:15:39.496Z,4072.00
2018-05-01T06:16:39.659Z,3512.00
2018-05-01T06:17:39.801Z,3500.00
2018-05-01T06:18:40.021Z,3488.00
2018-05-01T06:19:40.114Z,5120.00
2018-05-01T06:20:40.298Z,6236.00
2018-05-01T06:21:40.538Z,5144.00
2018-05-01T06:22:40.659Z,5724.00
2018-05-01T06:23:40.766Z,5672.00
2018-05-01T06:24:40.997Z,6044.00
2018-05-01T06:25:41.222Z,5632.00
2018-05-01T06:26:41.366Z,5152.00
2018-05-01T06:27:41.408Z,4868.00
2018-05-01T06:28:41.636Z,5048.00
2018-05-01T06:29:41.749Z,5884.00
2018-05-01T06:30:41.971Z,6144.00
2018-05-01T06:31:42.111Z,6716.00
2018-05-01T06:32:42.418Z,6628.00
2018-05-01T06:33:42.464Z,7444.00
2018-05-01T06:34:42.660Z,6620.00
2018-05-01T06:35:42.915Z,6368.00
2018-05-01T06:36:43.067Z,6236.00
2018-05-01T06:37:43.232Z,6436.00
2018-05-01T06:38:43.258Z,6360.00
2018-05-01T06:39:43.525Z,6120.00
2018-05-01T06:40:43.773Z,6132.00
2018-05-01T06:41:43.812Z,5936.00
2018-05-01T06:42:43.987Z,6220.00
2018-05-01T06:43:44.105Z,6044.00
2018-05-01T06:44:44.317Z,5056.00
2018-05-01T06:45:44.403Z,5528.00
2018-05-01T06:46:44.727Z,5576.00
2018-05-01T06:47:44.916Z,5744.00
2018-05-01T06:48:44.922Z,5876.00
2018-05-01T06:49:45.121Z,5836.00
2018-05-01T06:50:45.346Z,6048.00
2018-05-01T06:51:45.441Z,6280.00
2018-05-01T06:52:45.565Z,6828.00
2018-05-01T06:53:45.705Z,6300.00
2018-05-01T06:54:45.859Z,6112.00
2018-05-01T06:55:46.069Z,6348.00
2018-05-01T06:56:46.185Z,7292.00
2018-05-01T06:57:46.332Z,7028.00
2018-05-01T06:58:46.525Z,5964.00
2018-05-01T06:59:46.734Z,4860.00
2018-05-01T07:00:46.902Z,4468.00
2018-05-01T07:01:47.100Z,4444.00
2018-05-01T07:02:47.369Z,4444.00
2018-05-01T07:03:47.372Z,4556.00
2018-05-01T07:04:47.567Z,4784.00
2018-05-01T07:05:47.732Z,4948.00
2018-05-01T07:06:47.872Z,4836.00
2018-05-01T07:07:48.107Z,5160.00
2018-05-01T07:08:48.132Z,5176.00
2018-05-01T07:09:48.331Z,5356.00
2018-05-01T07:10:48.548Z,6188.00
2018-05-01T07:11:48.734Z,6796.00
2018-05-01T07:12:48.846Z,5956.00
2018-05-01T07:13:48.949Z,5392.00
2018-05-01T07:14:49.167Z,5220.00
2018-05-01T07:15:49.301Z,5652.00
2018-05-01T07:16:49.409Z,5384.00
2018-05-01T07:17:49.599Z,4676.00
2018-05-01T07:18:50.097Z,4588.00
2018-05-01T07:19:49.974Z,4456.00
2018-05-01T07:20:50.028Z,4940.00
2018-05-01T07:21:50.287Z,5676.00
2018-05-01T07:22:50.621Z,5384.00
2018-05-01T07:23:50.596Z,4948.00
2018-05-01T07:24:50.769Z,5260.00
2018-05-01T07:25:50.844Z,4156.00
2018-05-01T07:26:51.078Z,4116.00
2018-05-01T07:27:51.182Z,4172.00
2018-05-01T07:28:51.418Z,4796.00
2018-05-01T07:29:51.560Z,4468.00
2018-05-01T07:30:51.678Z,4524.00
2018-05-01T07:31:51.940Z,4784.00
2018-05-01T07:32:52.089Z,4544.00
2018-05-01T07:33:52.156Z,5172.00
2018-05-01T07:34:52.332Z,5856.00
2018-05-01T07:35:52.497Z,5008.00
2018-05-01T07:36:52.746Z,4388.00
2018-05-01T07:37:52.828Z,4440.00
2018-05-01T07:38:53.050Z,4204.00
2018-05-01T07:39:53.204Z,4136.00
2018-05-01T07:40:53.360Z,4268.00
2018-05-01T07:41:53.546Z,4248.00
2018-05-01T07:42:53.675Z,4300.00
2018-05-01T07:43:53.863Z,4580.00
2018-05-01T07:44:53.990Z,4404.00
2018-05-01T07:45:54.115Z,4204.00
2018-05-01T07:46:54.306Z,4112.00
2018-05-01T07:47:54.460Z,3972.00
2018-05-01T07:48:56.988Z,4652.00
2018-05-01T07:49:55.363Z,5832.00
2018-05-01T07:50:57.370Z,6616.00
2018-05-01T07:51:55.384Z,7276.00
2018-05-01T07:53:07.480Z,7028.00
2018-05-01T07:53:57.667Z,7272.00
2018-05-01T07:54:58.121Z,6972.00
2018-05-01T07:57:40.847Z,6644.00
2018-05-01T07:58:48.725Z,6900.00
2018-05-01T07:59:40.615Z,6712.00
2018-05-01T08:05:45.535Z,6888.00
2018-05-01T08:08:27.243Z,5948.00
2018-05-01T08:09:27.949Z,5516.00
2018-05-01T08:10:28.017Z,5116.00
2018-05-01T08:11:37.242Z,4772.00
2018-05-01T08:12:28.282Z,4400.00
2018-05-01T08:13:27.962Z,4504.00
2018-05-01T08:14:28.200Z,4032.00
2018-05-01T08:15:29.406Z,4196.00
2018-05-01T08:16:29.716Z,3956.00
2018-05-01T08:17:26.736Z,3620.00
2018-05-01T08:18:26.839Z,3780.00
2018-05-01T08:19:27.531Z,3856.00
2018-05-01T08:20:26.692Z,4036.00
2018-05-01T08:21:26.923Z,4020.00
2018-05-01T08:22:28.101Z,4036.00
2018-05-01T08:27:06.599Z,3700.00
2018-05-01T08:28:06.942Z,3532.00
2018-05-01T08:31:40.652Z,3260.00
2018-05-01T08:32:40.310Z,3492.00
2018-05-01T08:33:40.721Z,3508.00
2018-05-01T08:34:40.556Z,3348.00
2018-05-01T08:35:40.859Z,3328.00
2018-05-01T08:36:41.873Z,3396.00
2018-05-01T08:52:44.411Z,11416.00
2018-05-01T08:53:46.961Z,10584.00
2018-05-01T08:57:39.442Z,8936.00
2018-05-01T08:58:30.926Z,6968.00
2018-05-01T08:59:30.844Z,5332.00
2018-05-01T09:00:45.145Z,4480.00
2018-05-01T09:01:31.332Z,4164.00
2018-05-01T09:02:31.910Z,4332.00
2018-05-01T09:03:31.386Z,4356.00
2018-05-01T09:04:31.597Z,4184.00
2018-05-01T09:05:32.438Z,4108.00
2018-05-01T09:06:32.337Z,4136.00
2018-05-01T09:07:32.090Z,4228.00
2018-05-01T09:11:08.528Z,5732.00
2018-05-01T09:28:47.460Z,10340.00
2018-05-01T09:29:46.135Z,10060.00
2018-05-01T09:30:46.348Z,9136.00
2018-05-01T09:31:46.919Z,9240.00
2018-05-01T09:37:49.719Z,16096.00
2018-05-01T10:04:10.573Z,8292.00
2018-05-01T10:17:04.099Z,55136.00
2018-05-01T10:19:57.026Z,52160.00
2018-05-01T10:29:41.081Z,19744.00
2018-05-01T10:36:20.426Z,13060.00
2018-05-01T10:37:35.386Z,66208.00
2018-05-01T10:40:25.680Z,75392.00
2018-05-01T10:44:41.451Z,33856.00
2018-05-01T10:52:16.698Z,21536.00
2018-05-01T10:53:19.491Z,17504.00
2018-05-01T11:07:48.418Z,17568.00
2018-05-01T11:08:50.346Z,71328.00
2018-05-01T11:16:21.347Z,16012.00
2018-05-01T11:17:21.673Z,16200.00
2018-05-01T11:18:21.407Z,79200.00
2018-05-01T11:19:21.550Z,78592.00
2018-05-01T11:20:19.630Z,81504.00
2018-05-01T11:21:20.689Z,77024.00
2018-05-01T11:22:21.475Z,14532.00
2018-05-01T11:23:20.358Z,20544.00
2018-05-01T11:24:20.618Z,24896.00
2018-05-01T11:25:20.538Z,14368.00
2018-05-01T11:26:20.805Z,14792.00
2018-05-01T11:27:21.208Z,82304.00
2018-05-01T11:28:21.117Z,80832.00
2018-05-01T11:29:21.370Z,77536.00
2018-05-01T11:30:21.434Z,78944.00
2018-05-01T11:31:23.847Z,83072.00
2018-05-01T11:34:24.520Z,26368.00
2018-05-01T11:35:37.237Z,79392.00
2018-05-01T11:36:26.438Z,88448.00
2018-05-01T11:37:24.757Z,85024.00
2018-05-01T11:38:25.480Z,17568.00
2018-05-01T11:39:24.837Z,80224.00
2018-05-01T11:40:25.569Z,83136.00
2018-05-01T11:41:31.423Z,30560.00
2018-05-01T11:42:26.231Z,83872.00
2018-05-01T11:43:26.054Z,13700.00
2018-05-01T11:44:26.924Z,14672.00
2018-05-01T11:45:26.205Z,15876.00
2018-05-01T11:46:24.336Z,19552.00
2018-05-01T11:47:25.070Z,71040.00
2018-05-01T11:48:24.495Z,18688.00
2018-05-01T11:49:24.995Z,23072.00
2018-05-01T11:50:24.917Z,18624.00
2018-05-01T11:51:26.180Z,87264.00
2018-05-01T11:52:26.018Z,84800.00
2018-05-01T11:53:25.664Z,84672.00
2018-05-01T11:54:25.892Z,85248.00
2018-05-01T11:55:25.915Z,85472.00
2018-05-01T11:56:26.040Z,85088.00
2018-05-01T11:57:26.520Z,86720.00
2018-05-01T11:58:26.352Z,86784.00
2018-05-01T11:59:26.396Z,88384.00
2018-05-01T12:00:26.773Z,87744.00
2018-05-01T12:01:26.646Z,87264.00
2018-05-01T12:02:27.671Z,88992.00
2018-05-01T12:03:27.168Z,40224.00
2018-05-01T12:04:27.541Z,16048.00
2018-05-01T12:05:28.146Z,84992.00
2018-05-01T12:06:27.708Z,84512.00
2018-05-01T12:07:27.901Z,85120.00
2018-05-01T12:08:27.986Z,83872.00
2018-05-01T12:09:28.116Z,85664.00
2018-05-01T12:10:30.344Z,86368.00
2018-05-01T12:11:28.500Z,83360.00
2018-05-01T12:12:29.479Z,81600.00
2018-05-01T12:13:28.982Z,83168.00
2018-05-01T12:14:29.090Z,85536.00
2018-05-01T12:15:29.306Z,85344.00
2018-05-01T12:16:29.456Z,87840.00
2018-05-01T12:17:30.395Z,82688.00
2018-05-01T12:18:29.837Z,83904.00
2018-05-01T12:19:30.697Z,86816.00
2018-05-01T12:20:30.674Z,86592.00
2018-05-01T12:21:31.146Z,89280.00
2018-05-01T12:22:30.647Z,90048.00
2018-05-01T12:23:30.908Z,41952.00
2018-05-01T12:24:31.217Z,88480.00
2018-05-01T12:25:33.283Z,96160.00
2018-05-01T12:26:32.852Z,92224.00
2018-05-01T12:27:31.669Z,82848.00
2018-05-01T12:28:31.829Z,75968.00
2018-05-01T12:29:32.010Z,39296.00
2018-05-01T12:30:32.751Z,76832.00
2018-05-01T12:31:32.267Z,82784.00
2018-05-01T12:32:34.810Z,86528.00
2018-05-01T12:33:33.333Z,88064.00
2018-05-01T12:34:34.979Z,85696.00
2018-05-01T12:35:33.196Z,82848.00
2018-05-01T12:36:33.710Z,86400.00
2018-05-01T12:37:34.378Z,85664.00
2018-05-01T12:38:33.661Z,52352.00
2018-05-01T12:39:34.297Z,85664.00
2018-05-01T12:40:33.968Z,81248.00
2018-05-01T12:41:33.959Z,78944.00
2018-05-01T12:42:35.210Z,76672.00
2018-05-01T12:43:34.333Z,74528.00
2018-05-01T12:44:35.228Z,78176.00
2018-05-01T12:45:34.533Z,84416.00
2018-05-01T12:46:35.657Z,83392.00
2018-05-01T12:47:37.471Z,83552.00
2018-05-01T12:48:35.931Z,82400.00
2018-05-01T12:49:43.479Z,84928.00
2018-05-01T12:50:35.953Z,82048.00
2018-05-01T12:51:37.771Z,82112.00
2018-05-01T12:52:36.083Z,84416.00
2018-05-01T12:53:36.981Z,82496.00
2018-05-01T12:54:36.754Z,78272.00
2018-05-01T12:55:38.306Z,51360.00
2018-05-01T12:56:36.933Z,84160.00
2018-05-01T12:57:38.813Z,83264.00
2018-05-01T12:58:38.882Z,74976.00
2018-05-01T12:59:38.796Z,69664.00
2018-05-01T13:02:28.502Z,75200.00
2018-05-01T13:03:17.901Z,86752.00
2018-05-01T13:12:49.162Z,65664.00
2018-05-01T13:13:46.795Z,64832.00
2018-05-01T13:15:54.052Z,72128.00
2018-05-01T13:16:44.030Z,74208.00
2018-05-01T13:17:47.561Z,72928.00
2018-05-01T13:18:44.550Z,75264.00
2018-05-01T13:19:47.000Z,79104.00
2018-05-01T13:20:44.424Z,77792.00
2018-05-01T13:21:44.588Z,77376.00
2018-05-01T13:22:44.788Z,81280.00
2018-05-01T13:23:44.890Z,81888.00
2018-05-01T13:24:45.083Z,80576.00
2018-05-01T13:25:45.292Z,83136.00
2018-05-01T13:26:45.383Z,75328.00
2018-05-01T13:27:45.533Z,81440.00
2018-05-01T13:28:45.748Z,78432.00
2018-05-01T13:29:45.943Z,76224.00
2018-05-01T13:30:46.061Z,77952.00
2018-05-01T13:31:46.391Z,80000.00
2018-05-01T13:32:46.410Z,82048.00
2018-05-01T13:33:46.650Z,36672.00
2018-05-01T13:34:46.772Z,74592.00
2018-05-01T13:35:46.892Z,74848.00
2018-05-01T13:36:47.169Z,77280.00
2018-05-01T13:37:47.420Z,75904.00
2018-05-01T13:38:47.493Z,71392.00
2018-05-01T13:39:47.749Z,73984.00
2018-05-01T13:40:47.776Z,84864.00
2018-05-01T13:41:47.989Z,90592.00
2018-05-01T13:42:48.131Z,81216.00
2018-05-01T13:43:48.259Z,68128.00
2018-05-01T13:44:48.417Z,66592.00
2018-05-01T13:45:48.761Z,73216.00
2018-05-01T13:46:48.901Z,78304.00
2018-05-01T13:47:49.058Z,75360.00
2018-05-01T13:48:49.200Z,72256.00
2018-05-01T13:49:49.369Z,75488.00
2018-05-01T13:50:49.499Z,82592.00
2018-05-01T13:51:49.693Z,84160.00
2018-05-01T13:52:49.846Z,79232.00
2018-05-01T13:53:50.003Z,74656.00
2018-05-01T13:54:50.173Z,75840.00
2018-05-01T13:55:50.474Z,81216.00
2018-05-01T13:56:50.645Z,82336.00
2018-05-01T13:57:50.872Z,79264.00
2018-05-01T13:58:50.971Z,73536.00
2018-05-01T13:59:51.159Z,70912.00
2018-05-01T14:00:51.338Z,68352.00
2018-05-01T14:01:51.489Z,69504.00
2018-05-01T14:02:51.785Z,72448.00
2018-05-01T14:03:52.151Z,71680.00
2018-05-01T14:04:52.312Z,72352.00
2018-05-01T14:05:52.229Z,72288.00
2018-05-01T14:06:52.457Z,69920.00
2018-05-01T14:07:52.571Z,68960.00
2018-05-01T14:08:52.736Z,71584.00
2018-05-01T14:09:52.968Z,73344.00
2018-05-01T14:10:53.109Z,77376.00
2018-05-01T14:11:53.287Z,78784.00
2018-05-01T14:12:53.435Z,78784.00
2018-05-01T14:13:53.619Z,14404.00
2018-05-01T14:14:53.761Z,70912.00
2018-05-01T14:15:53.928Z,69440.00
2018-05-01T14:16:54.113Z,77888.00
2018-05-01T14:17:54.310Z,77376.00
2018-05-01T14:18:54.540Z,73504.00
2018-05-01T14:19:54.721Z,70368.00
2018-05-01T14:20:54.861Z,69056.00
2018-05-01T14:21:55.112Z,68448.00
2018-05-01T14:22:55.209Z,69792.00
2018-05-01T14:23:55.423Z,70240.00
2018-05-01T14:24:55.609Z,72672.00
2018-05-01T14:25:55.792Z,74592.00
2018-05-01T14:26:55.955Z,74304.00
2018-05-01T14:27:56.099Z,72512.00
2018-05-01T14:28:56.294Z,71296.00
2018-05-01T14:29:56.396Z,72576.00
2018-05-01T14:30:56.603Z,75072.00
2018-05-01T14:31:56.794Z,73920.00
2018-05-01T14:32:56.958Z,71744.00
2018-05-01T14:33:57.131Z,73376.00
2018-05-01T14:34:57.296Z,75840.00
2018-05-01T14:35:57.481Z,70720.00
2018-05-01T14:36:57.643Z,64992.00
2018-05-01T14:37:57.796Z,65056.00
2018-05-01T14:38:58.029Z,69440.00
2018-05-01T14:39:58.256Z,69952.00
2018-05-01T14:40:58.508Z,66080.00
2018-05-01T14:41:58.545Z,64736.00
2018-05-01T14:42:58.771Z,66816.00
2018-05-01T14:43:58.949Z,68800.00
2018-05-01T14:44:59.090Z,70784.00
2018-05-01T14:45:59.197Z,72384.00
2018-05-01T14:46:59.434Z,74048.00
2018-05-01T14:47:59.584Z,73184.00
2018-05-01T14:48:59.738Z,72096.00
2018-05-01T14:49:59.960Z,70656.00
2018-05-01T14:51:00.102Z,69632.00
2018-05-01T14:52:00.239Z,68928.00
2018-05-01T14:53:00.340Z,71168.00
2018-05-01T14:54:00.577Z,70560.00
2018-05-01T14:55:00.765Z,69216.00
2018-05-01T14:56:00.946Z,69280.00
2018-05-01T14:57:01.124Z,70848.00
2018-05-01T14:58:01.218Z,69632.00
2018-05-01T14:59:01.463Z,62720.00
2018-05-01T15:00:01.546Z,61440.00
2018-05-01T15:01:01.784Z,63328.00
2018-05-01T15:02:01.912Z,64352.00
2018-05-01T15:03:02.088Z,62784.00
2018-05-01T15:04:02.265Z,64064.00
2018-05-01T15:05:02.399Z,65728.00
2018-05-01T15:06:02.678Z,64224.00
2018-05-01T15:07:02.785Z,60608.00
2018-05-01T15:08:02.930Z,58368.00
2018-05-01T15:09:03.232Z,59136.00
2018-05-01T15:10:03.377Z,63200.00
2018-05-01T15:11:03.674Z,67104.00
2018-05-01T15:12:03.777Z,63840.00
2018-05-01T15:13:03.981Z,58464.00
2018-05-01T15:14:04.057Z,60384.00
2018-05-01T15:15:04.283Z,64000.00
2018-05-01T15:16:04.428Z,60320.00
2018-05-01T15:17:04.598Z,57344.00
2018-05-01T15:18:04.759Z,60736.00
2018-05-01T15:19:04.959Z,64224.00
2018-05-01T15:20:05.172Z,62272.00
2018-05-01T15:21:05.256Z,58848.00
2018-05-01T15:22:05.435Z,48160.00
2018-05-01T15:23:05.615Z,56672.00
2018-05-01T15:24:05.820Z,59136.00
2018-05-01T15:25:05.903Z,40384.00
2018-05-01T15:26:06.192Z,56544.00
2018-05-01T15:27:06.394Z,58944.00
2018-05-01T15:28:06.609Z,59264.00
2018-05-01T15:29:06.734Z,34464.00
2018-05-01T15:30:06.867Z,45792.00
2018-05-01T15:31:07.189Z,53024.00
2018-05-01T15:32:07.463Z,55872.00
2018-05-01T15:33:07.404Z,55456.00
2018-05-01T15:34:07.705Z,50048.00
2018-05-01T15:35:07.839Z,49216.00
2018-05-01T15:36:08.057Z,45376.00
2018-05-01T15:37:08.199Z,26048.00
2018-05-01T15:38:08.321Z,46272.00
2018-05-01T15:39:08.589Z,47392.00
2018-05-01T15:40:08.800Z,53536.00
2018-05-01T15:41:08.847Z,52160.00
2018-05-01T15:42:09.100Z,46240.00
2018-05-01T15:43:09.248Z,47584.00
2018-05-01T15:44:09.344Z,49664.00
2018-05-01T15:45:09.659Z,13376.00
2018-05-01T15:46:09.768Z,42176.00
2018-05-01T15:47:10.063Z,44672.00
2018-05-01T15:48:10.161Z,44320.00
2018-05-01T15:49:10.331Z,46880.00
2018-05-01T15:50:10.549Z,46240.00
2018-05-01T15:51:10.670Z,40736.00
2018-05-01T15:52:10.926Z,44896.00
2018-05-01T15:53:11.395Z,42912.00
2018-05-01T15:54:11.240Z,40960.00
2018-05-01T15:55:11.440Z,40672.00
2018-05-01T15:56:11.604Z,40032.00
2018-05-01T15:57:11.736Z,41376.00
2018-05-01T15:58:11.903Z,42336.00
2018-05-01T15:59:12.104Z,40512.00
2018-05-01T16:00:12.185Z,40608.00
2018-05-01T16:01:12.478Z,40960.00
2018-05-01T16:02:12.653Z,24928.00
2018-05-01T16:03:12.758Z,32192.00
2018-05-01T16:04:12.973Z,36864.00
2018-05-01T16:05:13.114Z,23488.00
2018-05-01T16:06:13.268Z,23104.00
2018-05-01T16:07:13.442Z,20832.00
2018-05-01T16:08:13.647Z,34144.00
2018-05-01T16:09:13.836Z,22560.00
2018-05-01T16:10:14.072Z,13004.00
2018-05-01T16:11:14.197Z,11604.00
2018-05-01T16:12:14.390Z,6828.00
2018-05-01T16:13:14.599Z,6744.00
2018-05-01T16:14:14.814Z,13188.00
2018-05-01T16:15:14.931Z,22528.00
2018-05-01T16:16:15.181Z,21504.00
2018-05-01T16:17:15.292Z,7692.00
2018-05-01T16:18:15.403Z,7984.00
2018-05-01T16:19:15.590Z,6768.00
2018-05-01T16:20:15.782Z,7416.00
2018-05-01T16:21:16.089Z,7740.00
2018-05-01T16:22:16.100Z,17024.00
2018-05-01T16:23:16.301Z,14208.00
2018-05-01T16:24:16.447Z,11404.00
2018-05-01T16:25:17.231Z,8024.00
2018-05-01T16:26:16.751Z,11888.00
2018-05-01T16:27:16.934Z,29888.00
2018-05-01T16:28:17.101Z,20672.00
2018-05-01T16:29:17.209Z,14272.00
2018-05-01T16:30:17.405Z,12324.00
2018-05-01T16:31:17.649Z,15008.00
2018-05-01T16:32:17.740Z,17376.00
2018-05-01T16:33:17.879Z,15392.00
2018-05-01T16:34:18.461Z,12612.00
2018-05-01T16:35:18.461Z,9048.00
2018-05-01T16:36:18.579Z,8456.00
2018-05-01T16:37:18.709Z,7384.00
2018-05-01T16:38:18.818Z,6676.00
2018-05-01T16:39:19.232Z,6540.00
2018-05-01T16:40:19.231Z,8956.00
2018-05-01T16:41:19.443Z,8344.00
2018-05-01T16:42:19.634Z,6468.00
2018-05-01T16:43:19.761Z,6912.00
2018-05-01T16:44:19.940Z,5980.00
2018-05-01T16:45:20.088Z,5060.00
2018-05-01T16:46:20.151Z,5028.00
2018-05-01T16:47:20.414Z,4872.00
2018-05-01T16:48:20.588Z,4788.00
2018-05-01T16:49:20.804Z,4724.00
2018-05-01T16:50:20.944Z,4696.00
2018-05-01T16:51:21.040Z,4656.00
2018-05-01T16:52:21.201Z,4668.00
2018-05-01T16:53:21.357Z,4704.00
2018-05-01T16:54:21.531Z,5352.00
2018-05-01T16:55:21.673Z,7040.00
2018-05-01T16:56:21.838Z,7448.00
2018-05-01T16:57:22.059Z,5308.00
2018-05-01T16:58:22.262Z,4832.00
2018-05-01T16:59:22.545Z,4272.00
2018-05-01T17:00:22.655Z,4200.00
2018-05-01T17:01:24.788Z,4224.00
2018-05-01T17:02:23.018Z,3812.00
2018-05-01T17:10:23.876Z,3500.00
2018-05-01T17:11:35.051Z,3680.00
2018-05-01T17:12:24.929Z,3652.00
2018-05-01T17:13:23.018Z,3624.00
2018-05-01T17:14:22.775Z,3572.00
2018-05-01T17:15:23.343Z,3548.00
2018-05-01T17:16:23.298Z,3516.00
2018-05-01T17:18:24.804Z,3484.00
2018-05-01T17:19:21.119Z,3448.00
2018-05-01T17:20:21.320Z,3412.00
2018-05-01T17:21:21.421Z,3380.00
2018-05-01T17:22:21.736Z,3324.00
2018-05-01T17:23:21.856Z,3280.00
2018-05-01T17:24:21.979Z,3244.00
2018-05-01T17:25:22.077Z,3220.00
2018-05-01T17:26:22.293Z,3172.00
2018-05-01T17:27:22.488Z,3112.00
2018-05-01T17:28:22.695Z,3068.00
2018-05-01T17:29:22.885Z,3032.00
2018-05-01T17:30:23.044Z,2984.00
2018-05-01T17:31:23.256Z,2948.00
2018-05-01T17:32:23.428Z,2916.00
2018-05-01T17:33:24.038Z,2876.00
2018-05-01T17:34:23.873Z,2840.00
2018-05-01T17:35:24.472Z,2800.00
2018-05-01T17:50:02.887Z,2232.00
2018-05-01T17:51:12.517Z,2196.00
2018-05-01T17:52:03.403Z,2156.00
2018-05-01T17:53:14.894Z,2112.00
2018-05-01T17:54:10.432Z,2068.00
2018-05-01T17:55:04.377Z,2024.00
2018-05-01T17:58:00.380Z,1880.00
2018-05-01T18:14:38.883Z,1104.00
2018-05-01T18:15:39.214Z,1064.00
2018-05-01T18:16:40.498Z,1028.00
2018-05-01T18:17:39.893Z,984.00
2018-05-01T18:22:08.486Z,828.00
2018-05-01T18:22:26.372Z,792.00
2018-05-01T18:23:29.484Z,752.00
2018-05-01T18:27:43.810Z,600.00
2018-05-01T18:28:45.058Z,564.00